Time;durP1;ratioP1;P1;durP2;ratioP2;P2;SDS_P1;SDS_P2;PMS_P1;PMS_P2;Temp;Humidity;BMP_temperature;BMP_pressure;BME280_temperature;BME280_humidity;BME280_pressure;Samples;Min_cycle;Max_cycle;Signal;HPM_P1;HPM_P2
2022/12/19 00:01:18;;;;;;;46.92;18.65;;;-0.30;99.90;;;;;;5053754;28;20052;-67
2022/12/19 00:03:57;;;;;;;42.97;18.15;;;-0.30;99.90;;;;;;5053831;28;20074;-67
2022/12/19 00:06:23;;;;;;;47.78;19.92;;;-0.40;99.90;;;;;;5049496;28;20049;-67
2022/12/19 00:08:50;;;;;;;52.42;21.52;;;-0.50;99.90;;;;;;5056904;28;20040;-67
2022/12/19 00:11:18;;;;;;;51.17;22.42;;;-0.60;99.90;;;;;;5049404;28;20037;-66
2022/12/19 00:13:45;;;;;;;49.95;21.67;;;-0.70;99.90;;;;;;5054090;28;20120;-67
2022/12/19 00:16:19;;;;;;;47.95;20.95;;;-0.60;99.90;;;;;;5052153;28;20067;-67
2022/12/19 00:18:46;;;;;;;42.65;19.05;;;-0.60;99.90;;;;;;5045480;28;20063;-67
2022/12/19 00:21:14;;;;;;;51.10;22.27;;;-0.60;99.90;;;;;;5038506;28;20033;-67
2022/12/19 00:23:40;;;;;;;44.97;18.80;;;-0.70;99.90;;;;;;5044837;28;20412;-67
2022/12/19 00:26:08;;;;;;;46.95;20.52;;;-0.70;99.90;;;;;;5039806;28;20132;-67
2022/12/19 00:28:33;;;;;;;43.42;19.17;;;-0.80;99.90;;;;;;5043912;28;20067;-67
2022/12/19 00:31:00;;;;;;;46.83;19.70;;;-0.80;99.90;;;;;;5042276;28;20041;-67
2022/12/19 00:33:26;;;;;;;49.10;21.25;;;-0.80;99.90;;;;;;5044241;28;20072;-66
2022/12/19 00:36:00;;;;;;;49.22;20.17;;;-0.80;99.90;;;;;;5040090;28;20065;-64
2022/12/19 00:38:26;;;;;;;49.42;21.27;;;-0.80;99.90;;;;;;5039621;28;20540;-67
2022/12/19 00:40:52;;;;;;;47.50;20.33;;;-0.80;99.90;;;;;;5042151;28;20339;-64
2022/12/19 00:43:18;;;;;;;50.60;20.83;;;-0.80;99.90;;;;;;5039022;28;20060;-65
2022/12/19 00:45:43;;;;;;;51.35;21.90;;;-0.80;99.90;;;;;;5047566;28;20053;-66
2022/12/19 00:48:09;;;;;;;52.75;22.40;;;-0.80;99.90;;;;;;5042091;28;20037;-64
2022/12/19 00:50:35;;;;;;;47.05;20.80;;;-0.70;99.90;;;;;;5039793;28;20124;-67
2022/12/19 00:53:00;;;;;;;48.58;20.92;;;-0.70;99.90;;;;;;5044321;28;20068;-69
2022/12/19 00:55:26;;;;;;;55.00;22.58;;;-0.60;99.90;;;;;;5040320;28;20045;-67
2022/12/19 00:57:52;;;;;;;48.25;20.60;;;-0.60;99.90;;;;;;5033466;28;20116;-67
2022/12/19 01:00:17;;;;;;;46.97;19.65;;;-0.60;99.90;;;;;;5043673;28;20040;-68
2022/12/19 01:02:43;;;;;;;48.80;21.52;;;-0.60;99.90;;;;;;5042938;28;20033;-67
2022/12/19 01:05:10;;;;;;;49.22;19.45;;;-0.60;99.90;;;;;;5039570;28;20048;-68
2022/12/19 01:07:36;;;;;;;45.35;20.25;;;-0.50;99.90;;;;;;5042779;28;20041;-67
2022/12/19 01:10:02;;;;;;;44.47;19.90;;;-0.50;99.90;;;;;;5045823;28;20041;-68
2022/12/19 01:12:46;;;;;;;38.33;16.95;;;-0.40;99.90;;;;;;5041575;28;20045;-67
2022/12/19 01:15:14;;;;;;;43.60;17.73;;;-0.30;99.90;;;;;;5044862;28;20048;-66
2022/12/19 01:17:40;;;;;;;40.10;17.42;;;-0.20;99.90;;;;;;5045700;28;20045;-67
2022/12/19 01:20:06;;;;;;;41.40;17.73;;;0.00;99.90;;;;;;5045034;28;20056;-66
2022/12/19 01:22:32;;;;;;;43.35;17.88;;;0.00;99.90;;;;;;5043339;28;20037;-67
2022/12/19 01:24:58;;;;;;;35.50;16.00;;;0.10;99.90;;;;;;5042212;28;20086;-67
2022/12/19 01:27:23;;;;;;;37.45;17.33;;;0.20;99.90;;;;;;5032540;28;20060;-67
2022/12/19 01:29:49;;;;;;;40.58;17.00;;;0.20;99.90;;;;;;5040616;28;20037;-67
2022/12/19 01:32:15;;;;;;;40.05;18.77;;;0.20;99.90;;;;;;5037020;28;20128;-67
2022/12/19 01:34:40;;;;;;;43.38;18.58;;;0.20;99.90;;;;;;5043521;28;20037;-66
2022/12/19 01:37:06;;;;;;;40.42;17.65;;;0.20;99.90;;;;;;5040009;28;20045;-66
2022/12/19 01:39:31;;;;;;;40.30;18.88;;;0.10;99.90;;;;;;5043272;28;20045;-65
2022/12/19 01:41:57;;;;;;;41.58;18.67;;;0.20;99.90;;;;;;5046140;28;20379;-66
2022/12/19 01:44:25;;;;;;;46.58;19.95;;;0.20;99.90;;;;;;5044263;28;20044;-66
2022/12/19 01:46:56;;;;;;;42.22;18.00;;;0.20;99.90;;;;;;5041478;28;20699;-65
2022/12/19 01:49:32;;;;;;;44.05;19.27;;;0.20;99.90;;;;;;5045682;28;20052;-67
2022/12/19 01:52:04;;;;;;;45.38;18.33;;;0.20;99.90;;;;;;5041620;28;20130;-66
2022/12/19 01:54:33;;;;;;;42.92;19.15;;;0.20;99.90;;;;;;5037759;28;20045;-68
2022/12/19 01:57:00;;;;;;;40.83;18.23;;;0.10;99.90;;;;;;5037799;28;20049;-67
2022/12/19 01:59:35;;;;;;;52.00;21.20;;;0.20;99.90;;;;;;5043080;28;20091;-69
2022/12/19 02:02:12;;;;;;;46.00;20.48;;;0.10;99.90;;;;;;5038254;28;20059;-69
2022/12/19 02:05:00;;;;;;;43.30;20.05;;;0.10;99.90;;;;;;5037572;28;20055;-68
2022/12/19 02:07:27;;;;;;;37.35;16.40;;;0.10;99.90;;;;;;5039059;28;20345;-70
2022/12/19 02:09:55;;;;;;;42.13;18.70;;;0.10;99.90;;;;;;5041468;28;20092;-68
2022/12/19 02:12:23;;;;;;;41.10;17.98;;;0.20;99.90;;;;;;5037391;28;20037;-69
2022/12/19 02:14:49;;;;;;;45.85;19.85;;;0.20;99.90;;;;;;5042454;28;20072;-69
2022/12/19 02:17:30;;;;;;;45.92;20.30;;;0.20;99.90;;;;;;5036994;28;20041;-68
2022/12/19 02:20:35;;;;;;;43.58;17.30;;;-0.10;99.90;;;;;;5041889;28;20045;-67
2022/12/19 02:23:35;;;;;;;45.35;19.20;;;-0.20;99.90;;;;;;5041741;28;20064;-65
2022/12/19 02:26:25;;;;;;;44.20;19.83;;;-0.20;99.90;;;;;;5037453;28;20067;-67
2022/12/19 02:29:12;;;;;;;45.30;19.10;;;-0.30;99.90;;;;;;5035714;28;20401;-67
2022/12/19 02:32:21;;;;;;;47.50;20.30;;;-0.30;99.90;;;;;;5033973;28;20048;-67
2022/12/19 02:34:58;;;;;;;47.55;20.38;;;-0.30;99.90;;;;;;5049773;28;20041;-69
2022/12/19 02:37:31;;;;;;;49.30;20.48;;;-0.40;99.90;;;;;;5041038;28;20041;-67
2022/12/19 02:40:42;;;;;;;45.22;20.48;;;-0.50;99.90;;;;;;5044438;28;20033;-68
2022/12/19 02:43:11;;;;;;;43.88;20.00;;;-0.60;99.90;;;;;;5038177;28;20107;-68
2022/12/19 02:45:39;;;;;;;47.90;20.65;;;-0.50;99.90;;;;;;5038608;28;20101;-66
2022/12/19 02:48:06;;;;;;;48.92;20.90;;;-0.60;99.90;;;;;;5035491;28;20032;-67
2022/12/19 02:50:37;;;;;;;43.30;19.60;;;-0.70;99.90;;;;;;5037572;28;20041;-68
2022/12/19 02:53:02;;;;;;;44.42;19.60;;;-0.60;99.90;;;;;;5036794;28;20033;-69
2022/12/19 02:55:31;;;;;;;33.50;15.23;;;-0.50;99.90;;;;;;5038190;28;20978;-66
2022/12/19 02:58:25;;;;;;;34.65;15.40;;;-0.30;99.90;;;;;;5037837;28;20130;-68
2022/12/19 03:01:23;;;;;;;40.25;14.38;;;0.00;99.90;;;;;;5028973;28;20053;-69
2022/12/19 03:04:03;;;;;;;30.95;15.65;;;0.20;99.90;;;;;;5039272;28;20037;-68
2022/12/19 03:06:41;;;;;;;34.90;14.05;;;0.40;99.90;;;;;;5033730;28;20099;-67
2022/12/19 03:09:22;;;;;;;33.05;14.95;;;0.50;99.90;;;;;;5038234;28;20033;-67
2022/12/19 03:11:54;;;;;;;31.77;14.32;;;0.70;99.90;;;;;;5031826;28;20049;-68
2022/12/19 03:14:21;;;;;;;32.90;13.85;;;0.80;99.90;;;;;;5039822;28;20082;-67
2022/12/19 03:16:47;;;;;;;31.13;13.35;;;0.90;99.90;;;;;;5035015;28;20107;-67
2022/12/19 03:19:14;;;;;;;34.03;14.23;;;0.90;99.90;;;;;;5038443;28;20108;-67
2022/12/19 03:21:46;;;;;;;30.38;14.18;;;0.90;99.90;;;;;;5041375;28;20049;-67
2022/12/19 03:24:13;;;;;;;35.15;14.45;;;1.00;99.90;;;;;;5047108;28;20041;-67
2022/12/19 03:27:11;;;;;;;27.63;13.48;;;1.10;99.90;;;;;;5043050;28;20124;-67
2022/12/19 03:29:46;;;;;;;29.23;13.02;;;1.10;99.90;;;;;;5041795;28;20053;-67
2022/12/19 03:32:15;;;;;;;31.17;13.52;;;1.10;99.90;;;;;;5032180;28;20052;-67
2022/12/19 03:35:04;;;;;;;30.48;13.55;;;1.20;99.90;;;;;;5039053;28;20033;-67
2022/12/19 03:37:33;;;;;;;35.88;15.63;;;1.20;99.90;;;;;;5039825;28;20049;-67
2022/12/19 03:40:03;;;;;;;35.30;15.35;;;1.30;99.90;;;;;;5040428;28;20132;-67
2022/12/19 03:45:24;;;;;;;31.63;13.85;;;1.30;99.90;;;;;;5032443;28;20079;-67
2022/12/19 03:48:01;;;;;;;31.27;14.57;;;1.30;99.90;;;;;;5040704;28;20056;-65
2022/12/19 03:50:37;;;;;;;37.20;15.68;;;1.40;99.90;;;;;;5042276;28;20127;-67
2022/12/19 03:53:14;;;;;;;34.53;15.65;;;1.40;99.90;;;;;;5044414;28;20044;-66
2022/12/19 03:55:56;;;;;;;29.65;14.23;;;1.40;99.90;;;;;;5042886;28;20148;-66
2022/12/19 03:58:46;;;;;;;32.35;15.32;;;1.40;99.90;;;;;;5038747;28;20045;-67
2022/12/19 04:01:12;;;;;;;29.85;13.98;;;1.40;99.90;;;;;;5036515;28;20040;-66
2022/12/19 04:03:38;;;;;;;28.15;13.80;;;1.50;99.90;;;;;;5045691;28;20037;-66
2022/12/19 04:06:05;;;;;;;33.78;14.95;;;1.50;99.90;;;;;;5038786;28;20044;-67
2022/12/19 04:08:32;;;;;;;30.50;15.45;;;1.50;99.90;;;;;;5074761;28;20041;-67
2022/12/19 04:11:08;;;;;;;38.03;17.70;;;1.50;99.90;;;;;;5043568;28;20152;-67
2022/12/19 04:13:48;;;;;;;34.42;16.17;;;1.50;99.90;;;;;;5044660;28;20120;-68
2022/12/19 04:16:14;;;;;;;35.00;15.63;;;1.50;99.90;;;;;;5033655;28;20033;-66
2022/12/19 04:18:44;;;;;;;32.75;15.57;;;1.40;99.90;;;;;;5043638;28;20037;-67
2022/12/19 04:21:23;;;;;;;35.03;17.17;;;1.40;99.90;;;;;;5042746;28;20043;-66
2022/12/19 04:23:59;;;;;;;33.70;15.77;;;1.30;99.90;;;;;;5045904;28;20048;-66
2022/12/19 04:26:26;;;;;;;35.20;16.52;;;1.30;99.90;;;;;;5043949;28;20060;-67
2022/12/19 04:28:56;;;;;;;36.33;17.63;;;1.30;99.90;;;;;;5046415;28;20239;-66
2022/12/19 04:31:22;;;;;;;42.53;20.10;;;1.20;99.90;;;;;;5043889;28;20117;-67
2022/12/19 04:33:48;;;;;;;33.25;17.17;;;1.20;99.90;;;;;;5044409;28;20041;-66
2022/12/19 04:36:13;;;;;;;38.92;16.95;;;1.20;99.90;;;;;;5038727;28;20036;-65
2022/12/19 04:38:39;;;;;;;34.65;15.90;;;1.20;99.90;;;;;;5040028;28;20032;-67
2022/12/19 04:41:05;;;;;;;34.58;17.17;;;1.20;99.90;;;;;;5044087;28;20576;-66
2022/12/19 04:43:31;;;;;;;34.83;16.73;;;1.20;99.90;;;;;;5044150;28;20033;-66
2022/12/19 04:45:56;;;;;;;36.53;16.92;;;1.20;99.90;;;;;;5043030;28;20052;-66
2022/12/19 04:48:22;;;;;;;35.85;17.08;;;1.30;99.90;;;;;;5046792;28;21652;-67
2022/12/19 04:50:47;;;;;;;32.97;16.70;;;1.30;99.90;;;;;;5042490;28;20621;-67
2022/12/19 04:53:13;;;;;;;34.83;16.30;;;1.30;99.90;;;;;;5041739;28;20123;-67
2022/12/19 04:55:40;;;;;;;38.65;17.17;;;1.30;99.90;;;;;;5039431;28;20037;-66
2022/12/19 04:58:05;;;;;;;35.53;16.30;;;1.30;99.90;;;;;;5041786;28;20174;-67
2022/12/19 05:00:32;;;;;;;33.13;15.88;;;1.30;99.90;;;;;;5042084;28;20349;-66
2022/12/19 05:02:58;;;;;;;38.20;18.02;;;1.40;99.90;;;;;;5044549;28;20041;-66
2022/12/19 05:05:23;;;;;;;33.63;16.67;;;1.40;99.90;;;;;;5038953;28;20052;-66
2022/12/19 05:07:50;;;;;;;38.15;18.02;;;1.40;99.90;;;;;;5042292;28;20111;-66
2022/12/19 05:10:16;;;;;;;35.53;15.95;;;1.50;99.90;;;;;;5043902;28;20033;-66
2022/12/19 05:12:41;;;;;;;34.42;17.50;;;1.50;99.90;;;;;;5044967;28;20037;-65
2022/12/19 05:15:08;;;;;;;36.88;17.40;;;1.50;99.90;;;;;;5039829;28;20040;-66
2022/12/19 05:17:33;;;;;;;34.65;16.23;;;1.50;99.90;;;;;;5042397;28;20617;-65
2022/12/19 05:19:59;;;;;;;32.63;15.70;;;1.60;99.90;;;;;;5042783;28;20049;-65
2022/12/19 05:22:24;;;;;;;34.55;15.85;;;1.60;99.90;;;;;;5040067;28;20040;-64
2022/12/19 05:24:50;;;;;;;34.25;15.75;;;1.60;99.90;;;;;;5045926;28;20048;-65
2022/12/19 05:27:16;;;;;;;31.38;16.48;;;1.60;99.90;;;;;;5040184;28;20048;-65
2022/12/19 05:29:42;;;;;;;39.30;16.88;;;1.60;99.90;;;;;;5052481;28;20033;-64
2022/12/19 05:32:07;;;;;;;29.65;14.90;;;1.70;99.90;;;;;;5040808;28;20064;-66
2022/12/19 05:34:33;;;;;;;31.13;14.57;;;1.70;99.90;;;;;;5056034;28;20094;-64
2022/12/19 05:36:59;;;;;;;36.60;16.90;;;1.80;99.90;;;;;;5041323;28;20137;-67
2022/12/19 05:39:24;;;;;;;32.58;16.27;;;1.80;99.90;;;;;;5045350;28;20037;-66
2022/12/19 05:41:50;;;;;;;33.33;15.10;;;1.80;99.90;;;;;;5042511;28;20067;-66
2022/12/19 05:44:16;;;;;;;33.17;16.48;;;1.80;99.90;;;;;;5040470;28;20120;-67
2022/12/19 05:46:41;;;;;;;30.48;15.27;;;1.70;99.90;;;;;;5031665;28;20041;-68
2022/12/19 05:49:07;;;;;;;33.50;16.58;;;1.70;99.90;;;;;;5040049;28;20043;-65
2022/12/19 05:51:33;;;;;;;33.13;16.25;;;1.70;99.90;;;;;;5037501;28;20560;-66
2022/12/19 05:54:02;;;;;;;31.17;14.88;;;1.70;99.90;;;;;;5047971;28;20667;-66
2022/12/19 05:56:28;;;;;;;28.20;15.70;;;1.60;99.90;;;;;;5038170;28;20041;-66
2022/12/19 05:58:53;;;;;;;56.67;16.10;;;1.60;99.90;;;;;;5043502;28;20039;-63
2022/12/19 06:01:25;;;;;;;44.63;14.63;;;1.70;99.90;;;;;;5030508;28;20040;-65
2022/12/19 06:03:51;;;;;;;29.38;14.07;;;1.70;99.90;;;;;;5037335;28;20041;-65
2022/12/19 06:06:20;;;;;;;27.67;14.48;;;1.70;99.90;;;;;;5042294;28;20094;-66
2022/12/19 06:08:46;;;;;;;26.20;12.80;;;1.70;99.90;;;;;;5051864;28;20115;-65
2022/12/19 06:11:13;;;;;;;26.08;13.57;;;1.70;99.90;;;;;;5045378;28;20116;-66
2022/12/19 06:13:39;;;;;;;23.88;12.60;;;1.70;99.90;;;;;;5037035;28;20052;-66
2022/12/19 06:16:16;;;;;;;23.15;11.93;;;1.70;99.90;;;;;;5041957;28;20044;-64
2022/12/19 06:18:43;;;;;;;20.15;10.95;;;1.60;99.90;;;;;;5042295;28;20040;-67
2022/12/19 06:21:13;;;;;;;21.30;11.18;;;1.60;99.90;;;;;;5045560;28;20068;-67
2022/12/19 06:23:39;;;;;;;18.50;10.88;;;1.70;99.90;;;;;;5042264;28;20078;-66
2022/12/19 06:26:06;;;;;;;19.27;10.15;;;1.70;99.90;;;;;;5038509;28;20040;-68
2022/12/19 06:28:33;;;;;;;17.48;9.05;;;1.70;99.90;;;;;;5037452;28;20045;-66
2022/12/19 06:31:00;;;;;;;15.80;9.25;;;1.70;99.90;;;;;;5045070;28;20033;-69
2022/12/19 06:33:26;;;;;;;16.88;9.00;;;1.70;99.90;;;;;;5042255;28;20041;-66
2022/12/19 06:36:04;;;;;;;16.75;8.95;;;1.70;99.90;;;;;;5042444;28;20037;-70
2022/12/19 06:38:31;;;;;;;17.13;8.88;;;1.80;99.90;;;;;;5040541;28;20127;-68
2022/12/19 06:43:42;;;;;;;18.65;8.68;;;1.90;99.90;;;;;;5036815;28;20037;-65
2022/12/19 06:46:08;;;;;;;14.32;7.63;;;1.90;99.90;;;;;;5035761;28;20086;-65
2022/12/19 06:48:34;;;;;;;11.73;6.90;;;1.90;99.90;;;;;;5043860;28;20037;-63
2022/12/19 06:51:00;;;;;;;12.73;7.00;;;2.00;99.90;;;;;;5035600;28;20086;-66
2022/12/19 06:53:26;;;;;;;14.10;7.45;;;2.00;99.90;;;;;;5035127;28;20048;-65
2022/12/19 06:55:56;;;;;;;13.25;7.00;;;2.00;99.90;;;;;;5036433;28;20080;-67
2022/12/19 06:58:22;;;;;;;12.10;6.43;;;2.00;99.90;;;;;;5034429;28;20104;-65
2022/12/19 07:00:47;;;;;;;10.50;5.78;;;2.00;99.90;;;;;;5030384;28;20089;-66
2022/12/19 07:03:17;;;;;;;11.88;6.35;;;2.10;99.90;;;;;;5031512;28;20772;-64
2022/12/19 07:05:43;;;;;;;11.20;5.97;;;2.10;99.90;;;;;;5034089;28;20049;-64
2022/12/19 07:08:10;;;;;;;9.40;5.53;;;2.10;99.90;;;;;;5040117;28;20044;-65
2022/12/19 07:10:36;;;;;;;11.68;5.80;;;2.10;99.90;;;;;;5042532;28;20084;-65
2022/12/19 07:13:01;;;;;;;7.93;5.20;;;2.10;99.90;;;;;;5034298;28;20036;-62
2022/12/19 07:15:30;;;;;;;8.82;4.90;;;2.10;99.90;;;;;;5037011;28;20030;-64
2022/12/19 07:17:58;;;;;;;8.52;4.97;;;2.10;99.90;;;;;;5041486;28;20041;-65
2022/12/19 07:20:24;;;;;;;9.65;5.57;;;2.20;99.90;;;;;;5039645;28;20041;-65
2022/12/19 07:22:50;;;;;;;7.25;4.32;;;2.20;99.90;;;;;;5027900;28;20045;-66
2022/12/19 07:25:16;;;;;;;6.47;3.92;;;2.20;99.90;;;;;;5041334;28;20083;-66
2022/12/19 07:27:43;;;;;;;6.38;3.80;;;2.20;99.90;;;;;;5041726;28;20516;-65
2022/12/19 07:30:09;;;;;;;6.90;3.75;;;2.30;99.90;;;;;;5045947;28;20113;-65
2022/12/19 07:32:35;;;;;;;5.75;3.60;;;2.30;99.90;;;;;;5043564;28;20135;-66
2022/12/19 07:35:01;;;;;;;6.75;3.78;;;2.40;99.90;;;;;;5044093;28;20128;-66
2022/12/19 07:37:27;;;;;;;6.50;3.75;;;2.40;99.90;;;;;;5039962;28;20079;-66
2022/12/19 07:39:53;;;;;;;4.55;3.08;;;2.40;99.90;;;;;;5045919;28;20076;-67
2022/12/19 07:42:19;;;;;;;8.77;3.70;;;2.40;99.90;;;;;;5047080;28;20465;-66
2022/12/19 07:44:44;;;;;;;7.13;3.65;;;2.60;99.90;;;;;;5045789;28;20091;-66
2022/12/19 07:47:10;;;;;;;5.88;3.45;;;2.60;99.90;;;;;;5043390;28;20033;-66
2022/12/19 07:49:36;;;;;;;7.53;3.88;;;2.70;99.90;;;;;;5042947;28;20123;-66
2022/12/19 07:52:02;;;;;;;8.30;4.50;;;2.70;99.90;;;;;;5043750;28;20064;-66
2022/12/19 07:54:27;;;;;;;7.90;4.10;;;2.70;99.90;;;;;;5045496;28;20419;-66
2022/12/19 07:56:53;;;;;;;8.35;4.03;;;2.70;99.90;;;;;;5043392;28;20075;-66
2022/12/19 07:59:19;;;;;;;7.55;4.40;;;2.80;99.90;;;;;;5047958;28;20048;-65
2022/12/19 08:01:44;;;;;;;6.15;4.10;;;2.90;99.90;;;;;;5040088;28;20065;-66
2022/12/19 08:04:10;;;;;;;7.40;4.22;;;2.90;99.90;;;;;;5037996;28;20128;-66
2022/12/19 08:06:36;;;;;;;11.70;4.38;;;3.00;99.90;;;;;;5042786;28;20049;-66
2022/12/19 08:09:02;;;;;;;8.35;4.38;;;3.10;99.90;;;;;;5047288;28;20051;-66
2022/12/19 08:11:28;;;;;;;8.10;4.53;;;3.20;99.90;;;;;;5043440;28;20044;-65
2022/12/19 08:13:55;;;;;;;6.80;4.50;;;3.30;99.90;;;;;;5044607;28;20064;-65
2022/12/19 08:16:21;;;;;;;9.10;4.97;;;3.30;99.90;;;;;;5036917;28;20041;-66
2022/12/19 08:18:47;;;;;;;7.65;4.40;;;3.50;99.90;;;;;;5042761;28;20048;-65
2022/12/19 08:21:13;;;;;;;7.30;4.60;;;3.50;99.90;;;;;;5043228;28;20037;-66
2022/12/19 08:23:40;;;;;;;9.27;5.35;;;3.60;99.90;;;;;;5046830;28;20029;-67
2022/12/19 08:26:10;;;;;;;8.98;5.35;;;3.60;99.90;;;;;;5034084;28;20041;-66
2022/12/19 08:28:36;;;;;;;8.15;5.05;;;3.70;99.90;;;;;;5043331;28;20110;-67
2022/12/19 08:31:11;;;;;;;8.80;5.82;;;3.70;99.90;;;;;;5044233;28;20057;-65
2022/12/19 08:33:37;;;;;;;12.85;6.28;;;3.80;99.90;;;;;;5044890;28;20067;-65
2022/12/19 08:36:11;;;;;;;9.55;5.88;;;3.80;99.90;;;;;;5048757;28;20400;-65
2022/12/19 08:38:38;;;;;;;12.50;6.15;;;3.80;99.90;;;;;;5044112;28;20460;-65
2022/12/19 08:41:04;;;;;;;11.40;6.57;;;3.80;99.90;;;;;;5057085;28;20735;-64
2022/12/19 08:43:31;;;;;;;13.27;6.85;;;3.80;99.90;;;;;;5044578;28;20029;-66
2022/12/19 08:45:57;;;;;;;11.18;6.78;;;3.90;99.90;;;;;;5050502;28;20045;-65
2022/12/19 08:48:22;;;;;;;11.68;7.05;;;3.80;99.90;;;;;;5041948;28;20051;-67
2022/12/19 08:50:52;;;;;;;12.73;7.03;;;3.90;99.90;;;;;;5045304;28;20074;-65
2022/12/19 08:53:19;;;;;;;15.27;8.68;;;3.80;99.90;;;;;;5042683;28;20489;-65
2022/12/19 08:55:44;;;;;;;11.60;7.68;;;3.90;99.90;;;;;;5044470;28;20036;-65
2022/12/19 08:58:10;;;;;;;13.05;7.70;;;3.90;99.90;;;;;;5044339;28;20025;-66
2022/12/19 09:00:36;;;;;;;16.13;8.15;;;3.90;99.90;;;;;;5041560;28;20080;-65
2022/12/19 09:03:02;;;;;;;17.02;8.50;;;3.90;99.90;;;;;;5040139;28;20037;-66
2022/12/19 09:05:28;;;;;;;12.88;8.02;;;3.90;99.90;;;;;;5038771;28;20041;-65
2022/12/19 09:07:53;;;;;;;11.70;7.38;;;3.90;99.90;;;;;;5041626;28;20079;-66
2022/12/19 09:10:20;;;;;;;14.38;8.02;;;3.90;99.90;;;;;;5011040;22;20506;-66
2022/12/19 09:12:45;;;;;;;12.23;8.02;;;3.90;99.90;;;;;;4999052;28;20126;-64
2022/12/19 09:15:11;;;;;;;14.38;8.52;;;3.90;99.90;;;;;;5003971;28;20038;-65
2022/12/19 09:17:37;;;;;;;16.23;8.50;;;3.90;99.90;;;;;;5003203;28;20046;-65
2022/12/19 09:20:03;;;;;;;16.25;9.50;;;4.00;99.90;;;;;;5001103;28;20030;-65
2022/12/19 09:22:29;;;;;;;15.98;9.13;;;4.00;99.90;;;;;;4999975;28;20125;-65
2022/12/19 09:24:55;;;;;;;15.55;9.95;;;4.00;99.90;;;;;;4994487;28;20133;-65
2022/12/19 09:27:20;;;;;;;15.63;8.38;;;4.00;99.90;;;;;;5005460;28;20148;-64
2022/12/19 09:29:46;;;;;;;16.17;8.75;;;4.00;99.90;;;;;;5000773;28;20064;-65
2022/12/19 09:32:12;;;;;;;13.95;8.52;;;4.10;99.90;;;;;;4996723;28;20039;-65
2022/12/19 09:34:37;;;;;;;14.93;8.77;;;4.10;99.90;;;;;;4993392;28;20040;-65
2022/12/19 09:37:04;;;;;;;14.57;8.73;;;4.10;99.90;;;;;;4997224;28;20512;-65
2022/12/19 09:39:30;;;;;;;15.55;9.30;;;4.10;99.90;;;;;;5000602;28;20141;-66
2022/12/19 09:42:05;;;;;;;17.90;9.23;;;4.10;99.90;;;;;;5001918;28;20057;-65
2022/12/19 09:44:40;;;;;;;14.87;8.43;;;4.20;99.90;;;;;;4992368;28;20069;-65
2022/12/19 09:47:23;;;;;;;16.38;8.85;;;4.20;99.90;;;;;;5001371;28;20038;-66
2022/12/19 09:49:50;;;;;;;16.00;8.73;;;4.30;99.90;;;;;;4993679;28;20417;-64
2022/12/19 09:52:28;;;;;;;13.98;8.20;;;4.30;99.90;;;;;;4994793;28;20097;-66
2022/12/19 09:55:15;;;;;;;12.77;7.93;;;4.40;99.90;;;;;;4990307;28;20041;-65
2022/12/19 09:57:47;;;;;;;13.77;8.43;;;4.40;99.90;;;;;;4992901;28;20193;-65
2022/12/19 10:00:18;;;;;;;15.32;8.20;;;4.50;99.90;;;;;;4995535;28;20084;-66
2022/12/19 10:03:00;;;;;;;13.50;8.30;;;4.50;99.90;;;;;;4996865;28;20790;-66
2022/12/19 10:05:36;;;;;;;13.68;8.45;;;4.50;99.90;;;;;;4986724;28;20045;-66
2022/12/19 10:08:02;;;;;;;;;;;4.60;99.90;;;;;;4998586;28;20042;-66
2022/12/19 10:10:38;;;;;;;15.07;8.43;;;4.70;99.90;;;;;;4996385;28;19921;-67
2022/12/19 10:13:16;;;;;;;;;;;4.60;99.90;;;;;;4999432;28;20030;-66
2022/12/19 10:15:59;;;;;;;19.25;9.02;;;4.60;99.90;;;;;;4996113;28;19929;-66
2022/12/19 10:18:37;;;;;;;14.25;8.85;;;4.70;99.90;;;;;;4996758;28;20046;-66
2022/12/19 10:21:05;;;;;;;18.10;10.02;;;4.70;99.90;;;;;;4993339;28;20093;-66
2022/12/19 10:23:40;;;;;;;16.25;9.18;;;4.70;99.90;;;;;;4997313;28;20401;-66
2022/12/19 10:26:16;;;;;;;17.50;9.85;;;4.70;99.90;;;;;;4998169;28;20776;-66
2022/12/19 10:28:45;;;;;;;15.27;9.32;;;4.70;99.90;;;;;;4997849;28;20125;-66
2022/12/19 10:31:46;;;;;;;18.95;9.48;;;4.80;99.90;;;;;;5003308;28;20049;-66
2022/12/19 10:34:31;;;;;;;16.48;8.80;;;4.80;99.90;;;;;;4992722;28;20104;-66
2022/12/19 10:37:08;;;;;;;15.32;8.65;;;4.90;99.90;;;;;;4996889;28;20136;-66
2022/12/19 10:40:26;;;;;;;18.15;8.98;;;4.90;99.90;;;;;;4997086;28;20046;-66
2022/12/19 10:43:08;;;;;;;18.92;9.75;;;4.90;99.90;;;;;;4975828;28;20042;-66
2022/12/19 10:45:43;;;;;;;14.35;8.73;;;5.00;99.90;;;;;;4986729;28;20092;-65
2022/12/19 10:48:14;;;;;;;16.85;8.60;;;5.00;99.90;;;;;;4996231;28;20030;-66
2022/12/19 10:50:40;;;;;;;15.50;9.27;;;5.10;99.90;;;;;;4994796;28;20064;-65
2022/12/19 10:53:10;;;;;;;16.92;9.75;;;5.10;99.90;;;;;;4994041;28;20507;-66
2022/12/19 10:55:52;;;;;;;16.27;9.55;;;5.10;99.90;;;;;;4991142;28;20473;-66
2022/12/19 10:58:35;;;;;;;19.42;9.63;;;5.10;99.90;;;;;;4994984;28;20494;-66
2022/12/19 11:01:11;;;;;;;13.25;7.85;;;5.20;99.90;;;;;;4996059;28;20038;-66
2022/12/19 11:03:40;;;;;;;19.40;8.20;;;5.20;99.90;;;;;;4992318;28;20046;-65
2022/12/19 11:06:26;;;;;;;16.90;9.23;;;5.20;99.90;;;;;;4998617;28;20073;-67
2022/12/19 11:09:10;;;;;;;15.90;9.30;;;5.20;99.90;;;;;;4993370;28;20076;-67
2022/12/19 11:11:36;;;;;;;15.90;8.77;;;5.30;99.90;;;;;;4990241;28;20052;-69
2022/12/19 11:14:22;;;;;;;14.95;8.00;;;5.20;99.90;;;;;;4985922;28;20122;-68
2022/12/19 11:16:48;;;;;;;17.05;9.65;;;5.30;99.90;;;;;;4995398;28;20056;-65
2022/12/19 11:19:40;;;;;;;16.10;9.05;;;5.30;99.90;;;;;;4997474;28;20046;-67
2022/12/19 11:22:29;;;;;;;23.92;12.10;;;5.30;99.90;;;;;;4993394;28;20914;-68
2022/12/19 11:24:56;;;;;;;22.50;10.30;;;5.40;99.90;;;;;;4987733;28;20140;-67
2022/12/19 11:27:41;;;;;;;14.98;8.75;;;5.30;99.90;;;;;;4998421;28;20050;-68
2022/12/19 11:30:30;;;;;;;19.17;8.57;;;5.30;99.90;;;;;;4996966;28;20125;-67
2022/12/19 11:33:17;;;;;;;19.55;10.20;;;5.20;99.90;;;;;;4994866;28;20457;-67
2022/12/19 11:35:48;;;;;;;17.20;9.55;;;5.10;99.90;;;;;;4996403;28;20038;-67
2022/12/19 11:38:36;;;;;;;28.70;12.40;;;5.10;99.90;;;;;;4995797;28;20038;-67
2022/12/19 11:41:11;;;;;;;20.13;10.10;;;5.10;99.90;;;;;;4995335;28;20038;-68
2022/12/19 11:43:55;;;;;;;20.23;9.77;;;5.10;99.90;;;;;;4995376;28;20554;-67
2022/12/19 11:46:40;;;;;;;18.73;9.10;;;5.10;99.90;;;;;;4993378;28;20709;-67
2022/12/19 11:49:17;;;;;;;25.33;11.73;;;5.10;99.90;;;;;;4992022;28;20034;-67
2022/12/19 11:52:09;;;;;;;16.83;9.18;;;5.10;99.90;;;;;;4995441;28;20042;-67
2022/12/19 11:54:38;;;;;;;19.23;8.38;;;5.20;99.90;;;;;;4995856;28;20126;-67
2022/12/19 11:57:10;;;;;;;16.42;8.80;;;5.30;99.90;;;;;;4998703;28;20046;-67
2022/12/19 11:59:38;;;;;;;15.25;7.35;;;5.30;99.90;;;;;;4999590;28;20060;-67
2022/12/19 12:02:38;;;;;;;16.67;7.82;;;5.30;99.90;;;;;;4997586;28;20097;-67
2022/12/19 12:05:31;;;;;;;12.57;6.50;;;5.30;99.90;;;;;;4985440;28;20041;-67
2022/12/19 12:08:14;;;;;;;13.55;7.35;;;5.30;99.90;;;;;;4996336;28;20072;-67
2022/12/19 12:10:49;;;;;;;18.35;6.88;;;5.40;99.90;;;;;;4999079;28;20054;-68
2022/12/19 12:13:30;;;;;;;11.05;5.95;;;5.40;99.90;;;;;;4999903;28;20038;-68
2022/12/19 12:16:15;;;;;;;11.95;6.50;;;5.40;99.90;;;;;;4999902;28;20073;-68
2022/12/19 12:19:24;;;;;;;11.55;6.57;;;5.60;99.90;;;;;;5003456;28;20422;-67
2022/12/19 12:22:10;;;;;;;14.40;7.03;;;5.70;99.90;;;;;;5020041;28;20030;-66
2022/12/19 12:25:22;;;;;;;12.80;6.13;;;5.80;99.90;;;;;;4998949;28;20052;-67
2022/12/19 12:28:20;;;;;;;9.38;6.38;;;5.80;99.90;;;;;;4999066;28;20477;-67
2022/12/19 12:31:31;;;;;;;19.63;7.82;;;5.80;99.90;;;;;;4998624;28;20058;-67
2022/12/19 12:34:24;;;;;;;14.95;8.18;;;5.80;99.90;;;;;;4979241;28;20541;-68
2022/12/19 12:37:19;;;;;;;13.57;7.18;;;5.90;99.90;;;;;;4999204;28;20053;-67
2022/12/19 12:40:00;;;;;;;12.93;6.95;;;5.90;99.90;;;;;;4993095;28;20053;-67
2022/12/19 12:42:53;;;;;;;13.32;7.72;;;5.90;99.90;;;;;;5002876;28;20041;-67
2022/12/19 12:45:21;;;;;;;13.20;7.57;;;5.90;99.90;;;;;;4998570;28;20060;-68
2022/12/19 12:47:50;;;;;;;13.95;7.05;;;5.90;99.90;;;;;;5002259;28;20030;-68
2022/12/19 12:50:17;;;;;;;13.07;7.45;;;5.90;99.90;;;;;;5000810;28;20042;-68
2022/12/19 12:52:49;;;;;;;13.70;8.23;;;5.90;99.90;;;;;;5001185;28;20092;-67
2022/12/19 12:55:28;;;;;;;13.98;7.63;;;5.90;99.90;;;;;;4997289;28;20052;-68
2022/12/19 12:57:54;;;;;;;14.10;7.63;;;5.90;99.90;;;;;;5004578;28;20244;-68
2022/12/19 13:00:29;;;;;;;14.55;8.32;;;5.80;99.90;;;;;;4994383;28;20041;-68
2022/12/19 13:03:11;;;;;;;12.75;7.40;;;5.80;99.90;;;;;;5003349;28;20046;-68
2022/12/19 13:05:46;;;;;;;13.95;8.02;;;5.80;99.90;;;;;;5015383;28;20144;-68
2022/12/19 13:08:35;;;;;;;14.05;8.10;;;5.70;99.90;;;;;;5002073;28;20049;-68
2022/12/19 13:11:02;;;;;;;12.60;7.90;;;5.70;99.90;;;;;;4993336;28;20490;-69
2022/12/19 13:13:49;;;;;;;16.48;8.00;;;5.70;99.90;;;;;;5012478;28;20052;-67